Dr.kaiyo — JD2325 — position and weather

sailwx.info

Track history (hours):
 
Tides and Currents Weather Stations Pressure Air Temp Water Temp Dewpoint Dewpoint Depression Visibility Wind Speed Wind Dir Waves Ship Positions

Dr.kaiyo

Last reported at 2015-Mar-17 04:33 UTC. Time now 2015-Mar-29 04:29 UTC.
Position N 34°41' E 135°15'.
Warning: this ship's position is 11 days out of date.

Length 31 m.

Type: Other ship. MMSI: 431301823.

Date/timePositionNaut miles runAvg speedWind from/ knotsBaromVisibWave heightAir tempDewpointWater temp
2015-Mar-17 04:33N 34°41' E 135°15'4 3.4
2015-Mar-17 03:24N 34°41' E 135°20'0 0.0
2015-Mar-17 02:30N 34°41' E 135°20'2 2.1
2015-Mar-17 01:33N 34°40' E 135°19'6 6.2
2015-Mar-17 00:33N 34°40' E 135°11'2 0.1
2015-Mar-16 05:29N 34°42' E 135°12'1111.6
2015-Mar-16 04:32N 34°31' E 135°18'2 1.6
2015-Mar-16 03:25N 34°29' E 135°18'6 7.2
2015-Mar-16 02:33N 34°29' E 135°10'2 2.3
2015-Mar-16 01:31N 34°30' E 135°12'1111.3
2015-Mar-16 00:33N 34°41' E 135°12'  
2015-Mar-12 06:33N 34°39' E 135°16'1313.3
2015-Mar-12 05:33N 34°31' E 135°03'8 7.6
2015-Mar-12 04:33N 34°25' E 135°09'3 1.4
2015-Mar-12 02:31N 34°22' E 135°10'8 7.4
2015-Mar-12 01:29N 34°29' E 135°06'1213.2
2015-Mar-12 00:33N 34°41' E 135°12'2 0.0
2015-Mar-10 01:33N 34°41' E 135°14'2 2.1
2015-Mar-10 00:33N 34°39' E 135°13'2 0.1
2015-Mar-09 07:10N 34°41' E 135°12'5 7.9
2015-Mar-09 06:33N 34°38' E 135°16'7 7.0
2015-Mar-09 05:33N 34°31' E 135°16'1 0.8
2015-Mar-09 04:22N 34°31' E 135°17'1 1.1
2015-Mar-09 03:32N 34°32' E 135°17'9 9.4
2015-Mar-09 02:33N 34°41' E 135°13'1 0.5
2015-Mar-09 01:30N 34°41' E 135°12'  
Track history (hours):
 
Tides and Currents Weather Stations Pressure Air Temp Water Temp Dewpoint Dewpoint Depression Visibility Wind Speed Wind Dir Waves Ship Positions

Dr.kaiyo

Last reported at 2015-Mar-17 04:33 UTC. Time now 2015-Mar-29 04:29 UTC.
Position N 34°41' E 135°15'.
Warning: this ship's position is 11 days out of date.

Length 31 m.

Type: Other ship. MMSI: 431301823.

Date/timePositionNaut miles runAvg speedWind from/ knotsBaromVisibWave heightAir tempDewpointWater temp
2015-Mar-17 04:33N 34°41' E 135°15'4 3.4
2015-Mar-17 03:24N 34°41' E 135°20'0 0.0
2015-Mar-17 02:30N 34°41' E 135°20'2 2.1
2015-Mar-17 01:33N 34°40' E 135°19'6 6.2
2015-Mar-17 00:33N 34°40' E 135°11'2 0.1
2015-Mar-16 05:29N 34°42' E 135°12'1111.6
2015-Mar-16 04:32N 34°31' E 135°18'2 1.6
2015-Mar-16 03:25N 34°29' E 135°18'6 7.2
2015-Mar-16 02:33N 34°29' E 135°10'2 2.3
2015-Mar-16 01:31N 34°30' E 135°12'1111.3
2015-Mar-16 00:33N 34°41' E 135°12'  
2015-Mar-12 06:33N 34°39' E 135°16'1313.3
2015-Mar-12 05:33N 34°31' E 135°03'8 7.6
2015-Mar-12 04:33N 34°25' E 135°09'3 1.4
2015-Mar-12 02:31N 34°22' E 135°10'8 7.4
2015-Mar-12 01:29N 34°29' E 135°06'1213.2
2015-Mar-12 00:33N 34°41' E 135°12'2 0.0
2015-Mar-10 01:33N 34°41' E 135°14'2 2.1
2015-Mar-10 00:33N 34°39' E 135°13'2 0.1
2015-Mar-09 07:10N 34°41' E 135°12'5 7.9
2015-Mar-09 06:33N 34°38' E 135°16'7 7.0
2015-Mar-09 05:33N 34°31' E 135°16'1 0.8
2015-Mar-09 04:22N 34°31' E 135°17'1 1.1
2015-Mar-09 03:32N 34°32' E 135°17'9 9.4
2015-Mar-09 02:33N 34°41' E 135°13'1 0.5
2015-Mar-09 01:30N 34°41' E 135°12'  

Dump ship's entire track history